KHLB

Batesville Airport

Batesville, Indiana, USA
METAR KHLB 170055Z AUTO 00000KT 1/4SM FG BKN002 03/03 A3010 RMK A01
Observed Flight Rules
Dec-17 @ 00:55 UTC (30 minutes ago) Instrument Flight Rules
Visibility Clouds Conditions
1/4 miles
  • Broken at 200' AGL
  • Fog
Temperatures Readings
Current 3°C / 37°F
Dewpoint 3°C / 37°F
Humidity 100%
Altimeter 30.1" Hg
Pressure 1019 hPa
METAR KHLB 170055Z AUTO 00000KT 1/4SM FG BKN002 03/03 A3010 RMK A01
Observed Flight Rules
Dec-17 @ 00:55 UTC
(30 minutes ago)
LIFR
Clouds
  • Broken at 200' AGL
Conditions
  • Fog
Temperature Dewpoint
3°C / 37°F 3°C / 37°F
Humidity Altimeter Pressure
100% 30.1" Hg 1019 hPa